Flight Track Log - Related Links

Times and Time Zones

All times are in EDT time to prevent confusion due to time zone crossing. See the SWA1504 flight status page for this flight to view local times or setup timezone preferences in your user account.

Time Position Orientation Groundspeed Altitude Reporting Facility
EDT Latitude Longitude Course Direction KTS MPH feet Rate Location/Type
Sat 01:43:15 PM 30.2476 -97.5047 193° South  Level FlightAware Approximate
Sat 01:44:38 PM 30.1672 -97.5261 57° Northeast 267 307 9,000  Level Houston Center
Sat 01:45:38 PM 30.2169 -97.4378 55° Northeast 298 343 11,200 10,000 Climbing Houston Center
Sat 01:47:38 PM 30.3333 -97.2472 79° East 368 423 39,000 2,967 Climbing Houston Center
Sat 01:48:38 PM 30.3528 -97.1281 93° East 368 423 20,100 -8,150 Descending Houston Center
Sat 01:49:38 PM 30.3475 -96.9978 94° East 354 407 22,700 2,300 Climbing Houston Center
Sat 01:50:38 PM 30.3383 -96.8603 94° East 423 487 24,700 1,900 Climbing Houston Center
Sat 01:51:38 PM 30.3306 -96.7347 94° East 435 501 26,500 1,800 Climbing Houston Center
Sat 01:52:38 PM 30.3211 -96.5925 93° East 446 513 28,300 1,750 Climbing Houston Center
Sat 01:53:38 PM 30.3142 -96.4431 95° East 456 525 30,000 1,650 Climbing Houston Center
Sat 01:54:38 PM 30.3025 -96.2936 93° East 461 531 31,600 1,850 Climbing Houston Center
Sat 01:55:38 PM 30.2953 -96.1392 73° East 470 541 33,700 1,800 Climbing Houston Center
Sat 01:56:38 PM 30.3333 -95.9919 52° Northeast 439 505 35,200 1,400 Climbing Houston Center
Sat 01:57:38 PM 30.4122 -95.8747 53° Northeast 440 506 36,500 1,250 Climbing Houston Center
Sat 01:58:38 PM 30.4911 -95.7553 52° Northeast 445 512 37,700 1,150 Climbing Houston Center
Sat 01:59:38 PM 30.5719 -95.6356 51° Northeast 458 527 38,800 650 Climbing Houston Center
Sat 02:00:38 PM 30.6522 -95.5206 53° Northeast 463 533 39,000 100 Climbing Houston Center
Sat 02:01:38 PM 30.7308 -95.4003 51° Northeast 463 533 39,000  Level Houston Center
Sat 02:03:47 PM 30.8989 -95.1619 51° Northeast 455 524 39,000  Level Fort Worth Center
Sat 02:04:47 PM 30.9803 -95.0439 52° Northeast 455 524 39,000  Level Fort Worth Center
Sat 02:05:47 PM 31.0575 -94.9303 52° Northeast 455 524 39,000  Level Fort Worth Center
Sat 02:06:47 PM 31.1467 -94.7992 50° Northeast 462 532 39,000  Level Fort Worth Center
Sat 02:07:47 PM 31.2317 -94.6803 52° Northeast 462 532 39,000  Level Fort Worth Center
Sat 02:08:47 PM 31.3106 -94.5636 53° Northeast 462 532 39,000  Level Fort Worth Center
Sat 02:09:47 PM 31.3872 -94.4422 50° Northeast 457 526 39,000  Level Fort Worth Center
Sat 02:10:47 PM 31.4739 -94.3200 52° Northeast 462 532 39,000  Level Fort Worth Center
Sat 02:11:47 PM 31.5544 -94.2003 52° Northeast 462 532 39,000  Level Fort Worth Center
Sat 02:12:47 PM 31.6350 -94.0803 52° Northeast 462 532 39,000  Level Fort Worth Center
Sat 02:13:47 PM 31.7111 -93.9653 51° Northeast 454 522 39,000  Level Fort Worth Center
Sat 02:14:47 PM 31.7775 -93.8700 52° Northeast 454 522 39,000  Level Fort Worth Center
Sat 02:15:47 PM 31.8656 -93.7394 52° Northeast 454 522 39,000  Level Fort Worth Center
Sat 02:16:47 PM 31.9453 -93.6186 51° Northeast 454 522 39,000  Level Fort Worth Center
Sat 02:17:47 PM 32.0272 -93.5003 53° Northeast 459 528 39,000  Level Fort Worth Center
Sat 02:18:47 PM 32.1069 -93.3767 54° Northeast 459 528 39,000  Level Fort Worth Center
Sat 02:19:47 PM 32.1922 -93.2353 51° Northeast 464 534 39,000  Level Fort Worth Center
Sat 02:20:47 PM 32.2736 -93.1161 50° Northeast 469 540 39,000  Level Fort Worth Center
Sat 02:21:47 PM 32.3453 -93.0144 55° Northeast 456 525 39,000  Level Fort Worth Center
Sat 02:22:47 PM 32.4319 -92.8700 52° Northeast 456 525 39,000  Level Fort Worth Center
Sat 02:23:47 PM 32.5131 -92.7475 51° Northeast 469 540 39,000  Level Fort Worth Center
Sat 02:24:47 PM 32.5961 -92.6250 53° Northeast 469 540 39,000  Level Fort Worth Center
Sat 02:26:31 PM 32.7281 -92.4144 52° Northeast 476 548 39,000  Level Memphis Center
Sat 02:27:31 PM 32.8094 -92.2903 52° Northeast 476 548 39,000  Level Memphis Center
Sat 02:28:31 PM 32.8906 -92.1658 52° Northeast 476 548 39,000  Level Memphis Center
Sat 02:29:31 PM 32.9697 -92.0436 54° Northeast 476 548 39,000  Level Memphis Center
Sat 02:30:31 PM 33.0486 -91.9161 53° Northeast 471 542 39,000  Level Memphis Center
Sat 02:31:31 PM 33.1272 -91.7911 54° Northeast 471 542 39,000  Level Memphis Center
Sat 02:32:31 PM 33.2058 -91.6633 52° Northeast 476 548 39,000  Level Memphis Center
Sat 02:33:31 PM 33.2864 -91.5378 53° Northeast 471 542 39,000  Level Memphis Center
Sat 02:34:31 PM 33.3647 -91.4119 53° Northeast 471 542 39,000  Level Memphis Center
Sat 02:35:31 PM 33.4450 -91.2858 53° Northeast 476 548 39,000  Level Memphis Center
Sat 02:36:31 PM 33.5231 -91.1597 53° Northeast 476 548 39,000  Level Memphis Center
Sat 02:37:31 PM 33.6033 -91.0306 54° Northeast 476 548 39,000  Level Memphis Center
Sat 02:38:31 PM 33.6811 -90.9039 53° Northeast 476 548 39,000  Level Memphis Center
Sat 02:39:31 PM 33.7608 -90.7769 55° Northeast 470 541 39,000  Level Memphis Center
Sat 02:40:31 PM 33.8281 -90.6622 54° Northeast 470 541 39,000  Level Memphis Center
Sat 02:41:31 PM 33.9056 -90.5350 53° Northeast 470 541 39,000  Level Memphis Center
Sat 02:42:31 PM 33.9933 -90.3947 54° Northeast 470 541 39,000  Level Memphis Center
Sat 02:43:31 PM 34.0725 -90.2644 54° Northeast 476 548 39,000  Level Memphis Center
Sat 02:44:31 PM 34.1494 -90.1364 55° Northeast 471 542 39,000  Level Memphis Center
Sat 02:45:31 PM 34.2264 -90.0056 54° Northeast 471 542 39,000  Level Memphis Center
Sat 02:46:31 PM 34.3033 -89.8794 55° Northeast 471 542 39,000  Level Memphis Center
Sat 02:47:31 PM 34.3800 -89.7481 54° Northeast 471 542 39,000  Level Memphis Center
Sat 02:48:31 PM 34.4564 -89.6192 55° Northeast 471 542 39,000  Level Memphis Center
Sat 02:49:31 PM 34.5328 -89.4872 54° Northeast 471 542 39,000  Level Memphis Center
Sat 02:50:31 PM 34.6111 -89.3553 53° Northeast 471 542 39,000  Level Memphis Center
Sat 02:51:31 PM 34.6892 -89.2281 54° Northeast 471 542 39,000  Level Memphis Center
Sat 02:52:31 PM 34.7672 -89.0956 54° Northeast 471 542 39,000  Level Memphis Center
Sat 02:53:31 PM 34.8450 -88.9628 54° Northeast 471 542 39,000  Level Memphis Center
Sat 02:54:31 PM 34.9208 -88.8350 54° Northeast 471 542 39,000  Level Memphis Center
Sat 02:55:31 PM 34.9964 -88.7069 55° Northeast 471 542 39,000  Level Memphis Center
Sat 02:56:31 PM 35.0736 -88.5733 54° Northeast 471 542 39,000  Level Memphis Center
Sat 02:57:31 PM 35.1408 -88.4603 55° Northeast 471 542 39,000  Level Memphis Center
Sat 02:58:31 PM 35.2181 -88.3264 54° Northeast 471 542 39,000  Level Memphis Center
Sat 02:59:31 PM 35.2950 -88.1947 55° Northeast 471 542 39,000  Level Memphis Center
Sat 03:00:31 PM 35.3719 -88.0603 56° Northeast 471 542 39,000  Level Memphis Center
Sat 03:01:31 PM 35.4425 -87.9308 55° Northeast 471 542 39,000  Level Memphis Center
Sat 03:02:31 PM 35.5169 -87.7986 55° Northeast 466 536 39,000  Level Memphis Center
Sat 03:03:31 PM 35.5914 -87.6661 55° Northeast 473 544 39,000  Level Memphis Center
Sat 03:04:31 PM 35.6656 -87.5333 55° Northeast 473 544 39,000  Level Memphis Center
Sat 03:05:31 PM 35.7397 -87.4031 55° Northeast 468 539 39,000  Level Memphis Center
Sat 03:06:31 PM 35.8156 -87.2672 55° Northeast 468 539 39,000  Level Memphis Center
Sat 03:07:31 PM 35.8975 -87.1206 56° Northeast 473 544 39,000  Level Memphis Center
Sat 03:08:31 PM 35.9708 -86.9869 57° Northeast 473 544 39,000  Level Memphis Center
Sat 03:09:31 PM 36.0422 -86.8506 61° Northeast 473 544 39,000  Level Memphis Center
Sat 03:10:31 PM 36.1069 -86.7064 68° East 473 544 39,000  Level Memphis Center
Sat 03:11:31 PM 36.1564 -86.5525 69° East 473 544 39,000  Level Memphis Center
Sat 03:12:31 PM 36.2058 -86.3958 67° East 473 544 39,000  Level Memphis Center
Sat 03:13:31 PM 36.2572 -86.2467 69° East 479 551 39,000  Level Memphis Center
Sat 03:14:31 PM 36.3061 -86.0922 68° East 479 551 39,000  Level Memphis Center
Sat 03:16:47 PM 36.4161 -85.7531 68° East 463 533 39,000  Level Indianapolis Center
Sat 03:17:47 PM 36.4669 -85.5969 69° East 469 540 39,000  Level Indianapolis Center
Sat 03:18:47 PM 36.5156 -85.4408 68° East 469 540 39,000  Level Indianapolis Center
Sat 03:19:47 PM 36.5592 -85.3047 68° East 469 540 39,000  Level Indianapolis Center
Sat 03:20:47 PM 36.6094 -85.1481 69° East 469 540 39,000  Level Indianapolis Center
Sat 03:21:47 PM 36.6575 -84.9939 68° East 469 540 39,000  Level Indianapolis Center
Sat 03:22:47 PM 36.7072 -84.8394 69° East 469 540 39,000  Level Indianapolis Center
Sat 03:23:47 PM 36.7547 -84.6819 69° East 469 540 39,000  Level Indianapolis Center
Sat 03:24:47 PM 36.8019 -84.5297 70° East 469 540 39,000  Level Indianapolis Center
Sat 03:25:47 PM 36.8533 -84.3564 68° East 469 540 39,000  Level Indianapolis Center
Sat 03:26:47 PM 36.9022 -84.2011 69° East 475 547 39,000  Level Indianapolis Center
Sat 03:27:47 PM 36.9489 -84.0456 70° East 475 547 39,000  Level Indianapolis Center
Sat 03:28:47 PM 36.9953 -83.8872 69° East 475 547 39,000  Level Indianapolis Center
Sat 03:29:47 PM 37.0414 -83.7339 70° East 475 547 39,000  Level Indianapolis Center
Sat 03:30:47 PM 37.0875 -83.5778 70° East 470 541 39,000  Level Indianapolis Center
Sat 03:31:47 PM 37.1333 -83.4217 69° East 470 541 39,000  Level Indianapolis Center
Sat 03:32:47 PM 37.1747 -83.2833 70° East 470 541 39,000  Level Indianapolis Center
Sat 03:33:47 PM 37.2203 -83.1294 70° East 470 541 39,000  Level Indianapolis Center
Sat 03:34:47 PM 37.2656 -82.9725 70° East 470 541 39,000  Level Indianapolis Center
Sat 03:35:47 PM 37.3106 -82.8156 70° East 470 541 39,000  Level Indianapolis Center
Sat 03:36:47 PM 37.3553 -82.6608 71° East 465 535 39,000  Level Indianapolis Center
Sat 03:37:47 PM 37.4000 -82.5008 70° East 471 542 39,000  Level Indianapolis Center
Sat 03:38:47 PM 37.4503 -82.3275 71° East 477 549 39,000  Level Indianapolis Center
Sat 03:39:47 PM 37.4944 -82.1644 70° East 477 549 39,000  Level Indianapolis Center
Sat 03:40:47 PM 37.5403 -82.0039 71° East 482 555 39,000  Level Indianapolis Center
Sat 03:41:47 PM 37.5839 -81.8403 70° East 490 564 39,000  Level Indianapolis Center
Sat 03:44:10 PM 37.6914 -81.4681 70° East 490 564 39,000  Level Washington Center
Sat 03:45:10 PM 37.7367 -81.3061 71° East 490 564 39,000  Level Washington Center
Sat 03:46:11 PM 37.7819 -81.1439 71° East 490 564 39,000  Level Washington Center
Sat 03:47:11 PM 37.8269 -80.9817 71° East 485 558 39,000  Level Washington Center
Sat 03:48:09 PM 37.8664 -80.8397 70° East 485 558 39,000  Level Washington Center
Sat 03:49:09 PM 37.9133 -80.6747 70° East 485 558 39,000  Level Washington Center
Sat 03:50:11 PM 37.9575 -80.5169 72° East 480 552 39,000  Level Washington Center
Sat 03:51:09 PM 37.9994 -80.3536 70° East 480 552 39,000 -454 Level Washington Center
Sat 03:52:10 PM 38.0453 -80.1956 71° East 480 552 38,100 -1,033 Descending Washington Center
Sat 03:53:11 PM 38.0914 -80.0217 71° East 480 552 36,900 -1,041 Descending Washington Center
Sat 03:54:11 PM 38.1347 -79.8606 71° East 480 552 36,000 -446 Descending Washington Center
Sat 03:55:12 PM 38.1781 -79.7019 72° East 474 545 36,000 -153 Level Washington Center
Sat 03:56:09 PM 38.2186 -79.5456 72° East 474 545 35,700 -1,436 Descending Washington Center
Sat 03:57:09 PM 38.2592 -79.3892 70° East 474 545 33,200 -2,628 Descending Washington Center
Sat 03:58:10 PM 38.2992 -79.2456 72° East 474 545 30,400 -2,430 Descending Washington Center
Sat 03:59:10 PM 38.3414 -79.0808 72° East 474 545 28,300 -1,686 Descending Washington Center
Sat 04:00:11 PM 38.3817 -78.9183 75° East 474 545 27,000 -639 Descending Washington Center
Sat 04:01:12 PM 38.4172 -78.7531 72° East 474 545 27,000  Level Washington Center
Sat 04:02:09 PM 38.4589 -78.5931 72° East 474 545 27,000 -153 Level Washington Center
Sat 04:03:10 PM 38.5003 -78.4331 72° East 474 545 26,700 -1,131 Descending Washington Center
Sat 04:04:11 PM 38.5417 -78.2672 72° East 474 545 24,700 -2,132 Descending Washington Center
Sat 04:05:11 PM 38.5806 -78.1094 72° East 474 545 22,400 -2,250 Descending Washington Center
Sat 04:06:11 PM 38.6192 -77.9539 79° East 468 539 20,200 -1,729 Descending Washington Center
Sat 04:07:09 PM 38.6431 -77.7978 84° East 455 524 19,000 -595 Descending Washington Center
Sat 04:08:12 PM 38.6564 -77.6281 83° East 444 511 19,000 -594 Level Washington Center
Sat 04:08:50 PM 38.6667 -77.5167 90° East 438 504 18,000 -1,818 Descending Potomac TRACON
Sat 04:09:51 PM 38.6667 -77.3667 82° East 446 513 16,000 -1,686 Descending Potomac TRACON
Sat 04:10:51 PM 38.6833 -77.2167 90° East 427 491 14,600 -1,810 Descending Potomac TRACON
Sat 04:11:57 PM 38.6833 -77.0333 80° East 415 478 12,200 -2,132 Descending Potomac TRACON
Sat 04:12:52 PM 38.7000 -76.9167 90° East 407 468 10,300 -1,255 Descending Potomac TRACON
Sat 04:13:47 PM 38.7000 -76.7833 65° Northeast 368 423 9,900 -1,079 Descending Potomac TRACON
Sat 04:15:11 PM 38.7503 -76.6431 36° Northeast 342 394 7,800 -1,380 Descending Washington Center
Sat 04:16:54 PM 38.8667 -76.5333 349° North 293 337 5,600 -1,185 Descending Potomac TRACON
Sat 04:17:48 PM 38.9333 -76.5500 339° North 267 307 4,700 -1,304 Descending Potomac TRACON
Sat 04:18:49 PM 39.0000 -76.5833 349° North 263 303 3,100 -1,091 Descending Potomac TRACON
Sat 04:19:49 PM 39.0667 -76.6000 345° North 236 272 2,500 -709 Descending Potomac TRACON
Sat 04:20:56 PM 39.1167 -76.6167 322° Northwest 156 180 1,600 -984 Descending Potomac TRACON
Sat 04:21:51 PM 39.1500 -76.6500 322° Northwest 140 161 500 -1,200 Descending Potomac TRACON

Login

Don't have an account? Register now (free) for customized features, flight alerts, and more!